createdAt,value
2023-05-01T07:10:31.346Z,75.96
2023-05-01T07:12:58.295Z,74.91
2023-05-01T07:15:25.266Z,73.90
2023-05-01T07:17:52.807Z,73.21
2023-05-01T07:20:19.753Z,73.29
2023-05-01T07:22:46.927Z,72.71
2023-05-01T07:25:14.533Z,72.91
2023-05-01T07:27:41.852Z,72.27
2023-05-01T07:30:09.777Z,69.29
2023-05-01T07:32:36.667Z,69.88
2023-05-01T07:35:04.667Z,68.05
2023-05-01T07:37:31.601Z,69.05
2023-05-01T07:39:58.791Z,69.29
2023-05-01T07:42:29.204Z,67.26
2023-05-01T07:44:56.308Z,66.58
2023-05-01T07:47:23.479Z,66.59
2023-05-01T07:49:50.599Z,64.74
2023-05-01T07:52:17.499Z,64.44
2023-05-01T07:54:51.178Z,66.54
2023-05-01T07:57:18.553Z,65.71
2023-05-01T07:59:45.608Z,64.60
2023-05-01T08:02:14.128Z,63.02
2023-05-01T08:04:41.991Z,61.55
2023-05-01T08:07:09.074Z,58.89
2023-05-01T08:09:36.934Z,58.97
2023-05-01T08:12:04.193Z,57.10
2023-05-01T08:14:31.328Z,56.28
2023-05-01T08:16:58.345Z,57.04
2023-05-01T08:19:25.736Z,58.12
2023-05-01T08:21:53.357Z,57.18
2023-05-01T08:24:20.382Z,56.13
2023-05-01T08:26:47.770Z,57.01
2023-05-01T08:29:14.817Z,57.41
2023-05-01T08:31:43.536Z,57.73
2023-05-01T08:34:12.915Z,56.84
2023-05-01T08:36:39.912Z,54.39
2023-05-01T08:39:06.975Z,54.17
2023-05-01T08:41:35.001Z,52.65
2023-05-01T08:44:03.046Z,50.53
2023-05-01T08:46:44.663Z,48.70
2023-05-01T08:49:17.541Z,46.30
2023-05-01T08:51:50.815Z,45.75
2023-05-01T08:54:20.054Z,46.39
2023-05-01T08:56:47.632Z,47.02
2023-05-01T08:59:15.383Z,47.56
2023-05-01T09:01:45.839Z,46.60
2023-05-01T09:04:13.916Z,46.13
2023-05-01T09:06:41.203Z,45.14
2023-05-01T09:09:08.479Z,46.29
2023-05-01T09:11:35.395Z,46.21
2023-05-01T09:14:05.853Z,46.32
2023-05-01T09:16:33.053Z,44.90
2023-05-01T09:19:00.033Z,43.27
2023-05-01T09:21:32.250Z,44.33
2023-05-01T09:23:59.305Z,41.92
2023-05-01T09:26:27.075Z,41.56
2023-05-01T09:28:58.365Z,41.17
2023-05-01T09:31:30.062Z,41.67
2023-05-01T09:33:59.570Z,40.74
2023-05-01T09:36:28.379Z,40.73
2023-05-01T09:38:55.353Z,41.19
2023-05-01T09:41:22.946Z,41.59
2023-05-01T09:43:59.967Z,43.02
2023-05-01T09:46:27.789Z,43.33
2023-05-01T09:48:55.860Z,43.30
2023-05-01T09:51:29.379Z,42.32
2023-05-01T09:54:02.026Z,41.82
2023-05-01T09:56:34.352Z,41.98
2023-05-01T09:59:18.490Z,41.52
2023-05-01T10:01:47.336Z,41.41
2023-05-01T10:04:14.518Z,41.91
2023-05-01T10:06:41.713Z,43.01
2023-05-01T10:09:17.864Z,41.22
2023-05-01T10:11:54.250Z,40.64
2023-05-01T10:14:24.202Z,40.12
2023-05-01T10:16:53.372Z,38.72
2023-05-01T10:19:20.702Z,38.79
2023-05-01T10:21:47.740Z,39.56
2023-05-01T10:24:17.407Z,40.25
2023-05-01T10:26:47.592Z,38.28
2023-05-01T10:29:15.167Z,39.19
2023-05-01T10:31:42.791Z,39.16
2023-05-01T10:34:12.921Z,41.89
2023-05-01T10:36:47.836Z,42.75
2023-05-01T10:39:36.352Z,42.19
2023-05-01T10:42:14.335Z,41.62
2023-05-01T10:44:42.632Z,40.54
2023-05-01T10:47:43.068Z,40.60
2023-05-01T10:50:12.286Z,39.88
2023-05-01T10:53:12.874Z,39.81
2023-05-01T10:55:43.837Z,39.28
2023-05-01T10:58:15.081Z,39.24
2023-05-01T11:00:42.820Z,38.38
2023-05-01T11:03:22.359Z,38.30
2023-05-01T11:06:05.776Z,37.96
2023-05-01T11:08:37.828Z,37.15
2023-05-01T11:11:20.169Z,38.20
2023-05-01T11:14:06.801Z,37.43
2023-05-01T11:16:40.098Z,36.96
2023-05-01T11:19:08.964Z,36.25
2023-05-01T11:21:38.717Z,36.45
2023-05-01T11:24:07.050Z,35.61
2023-05-01T11:26:39.239Z,35.05
2023-05-01T11:29:07.053Z,35.43
2023-05-01T11:31:34.531Z,35.89
2023-05-01T11:34:02.434Z,36.31
2023-05-01T11:36:48.064Z,35.98
2023-05-01T11:39:17.658Z,36.15
2023-05-01T11:41:44.836Z,35.94
2023-05-01T11:44:13.307Z,34.75
2023-05-01T11:46:40.245Z,34.82
2023-05-01T11:49:07.172Z,35.49
2023-05-01T11:51:34.255Z,34.71
2023-05-01T11:54:15.939Z,34.62
2023-05-01T11:56:43.109Z,33.42
2023-05-01T11:59:11.004Z,33.80
2023-05-01T12:01:40.094Z,32.71
2023-05-01T12:04:11.499Z,33.66
2023-05-01T12:06:46.075Z,33.48
2023-05-01T12:09:24.718Z,34.12
2023-05-01T12:11:53.367Z,34.76
2023-05-01T12:14:21.906Z,35.56
2023-05-01T12:16:49.652Z,35.84
2023-05-01T12:19:18.405Z,36.04
2023-05-01T12:21:45.334Z,36.37
2023-05-01T12:24:17.603Z,36.51
2023-05-01T12:26:45.769Z,36.96
2023-05-01T12:29:13.574Z,36.33
2023-05-01T12:31:48.907Z,36.64
2023-05-01T12:34:16.117Z,35.84
2023-05-01T12:36:54.191Z,35.55
2023-05-01T12:39:23.692Z,36.10
2023-05-01T12:41:51.931Z,36.60
2023-05-01T12:44:19.388Z,35.49
2023-05-01T12:47:03.762Z,35.10
2023-05-01T12:49:32.721Z,35.48
2023-05-01T12:52:01.136Z,36.00
2023-05-01T12:54:33.465Z,36.64
2023-05-01T12:57:16.829Z,35.85
2023-05-01T12:59:47.573Z,34.41
2023-05-01T13:02:17.508Z,35.07
2023-05-01T13:04:45.623Z,35.23
2023-05-01T13:07:16.716Z,36.10
2023-05-01T13:09:59.199Z,37.00
2023-05-01T13:12:28.271Z,37.73
2023-05-01T13:14:56.004Z,36.47
2023-05-01T13:17:28.406Z,36.44
2023-05-01T13:20:00.102Z,37.25
2023-05-01T13:22:36.190Z,36.40
2023-05-01T13:25:05.430Z,36.94
2023-05-01T13:27:32.766Z,37.24
2023-05-01T13:30:00.590Z,37.68
2023-05-01T13:32:28.390Z,37.47
2023-05-01T13:34:56.310Z,37.38
2023-05-01T13:37:23.339Z,36.24
2023-05-01T13:39:50.779Z,36.52
2023-05-01T13:42:27.333Z,36.41
2023-05-01T13:44:56.625Z,36.23
2023-05-01T13:47:28.445Z,35.74
2023-05-01T13:49:55.881Z,36.62
2023-05-01T13:52:23.549Z,36.74
2023-05-01T13:54:55.293Z,36.33
2023-05-01T13:57:22.223Z,35.77
2023-05-01T13:59:49.071Z,36.10
2023-05-01T14:02:30.105Z,36.13
2023-05-01T14:04:59.341Z,35.93
2023-05-01T14:07:27.870Z,36.00
2023-05-01T14:09:57.470Z,36.44
2023-05-01T14:12:29.880Z,36.48
2023-05-01T14:14:58.089Z,37.04
2023-05-01T14:17:36.374Z,36.95
2023-05-01T14:20:05.642Z,37.14
2023-05-01T14:22:45.335Z,37.17
2023-05-01T14:25:34.928Z,36.95
2023-05-01T14:28:08.053Z,37.29
2023-05-01T14:30:40.072Z,36.94
2023-05-01T14:33:09.724Z,37.57
2023-05-01T14:35:38.118Z,37.37
2023-05-01T14:38:11.439Z,37.31
2023-05-01T14:40:40.932Z,38.06
2023-05-01T14:43:10.685Z,37.13
2023-05-01T14:45:42.222Z,36.38
2023-05-01T14:48:11.086Z,36.22
2023-05-01T14:50:38.649Z,36.21
2023-05-01T14:53:05.884Z,35.88
2023-05-01T14:55:35.958Z,35.97
2023-05-01T14:58:03.780Z,36.23
2023-05-01T15:00:31.011Z,36.14
2023-05-01T15:02:59.434Z,35.84
2023-05-01T15:05:28.522Z,35.83
2023-05-01T15:08:00.709Z,35.46
2023-05-01T15:10:29.122Z,35.68
2023-05-01T15:12:56.086Z,35.36
2023-05-01T15:15:23.110Z,35.67
2023-05-01T15:17:50.271Z,34.99
2023-05-01T15:20:17.905Z,35.19
2023-05-01T15:22:44.858Z,34.54
2023-05-01T15:25:12.073Z,34.83
2023-05-01T15:27:39.091Z,34.79
2023-05-01T15:30:06.694Z,35.41
2023-05-01T15:32:33.691Z,35.07
2023-05-01T15:35:00.865Z,34.92
2023-05-01T15:37:27.970Z,35.34
2023-05-01T15:39:57.977Z,35.63
2023-05-01T15:42:25.180Z,35.64
2023-05-01T15:44:52.508Z,35.62
2023-05-01T15:47:19.469Z,35.33
2023-05-01T15:49:46.481Z,36.19
2023-05-01T15:52:13.739Z,35.60
2023-05-01T15:54:40.898Z,35.69
2023-05-01T15:57:08.933Z,35.63
2023-05-01T15:59:35.797Z,35.56
2023-05-01T16:02:02.756Z,35.64
2023-05-01T16:04:29.686Z,35.59
2023-05-01T16:06:56.710Z,35.65
2023-05-01T16:09:31.414Z,36.11
2023-05-01T16:11:59.813Z,36.06
2023-05-01T16:14:26.910Z,36.29
2023-05-01T16:16:54.015Z,35.85
2023-05-01T16:19:21.060Z,35.78
2023-05-01T16:21:48.081Z,35.70
2023-05-01T16:24:15.105Z,36.21
2023-05-01T16:26:42.320Z,36.19
2023-05-01T16:29:10.899Z,36.32
2023-05-01T16:31:47.555Z,36.34
2023-05-01T16:34:18.340Z,36.53
2023-05-01T16:36:47.143Z,36.96
2023-05-01T16:39:21.811Z,38.66
2023-05-01T16:41:53.754Z,40.00
2023-05-01T16:44:22.738Z,40.19
2023-05-01T16:46:56.524Z,41.18
2023-05-01T16:49:25.320Z,41.82
2023-05-01T16:51:56.837Z,42.46
2023-05-01T16:54:35.835Z,42.47
2023-05-01T16:57:06.489Z,43.17
2023-05-01T16:59:33.588Z,43.10
2023-05-01T17:02:00.689Z,43.18
2023-05-01T17:04:28.074Z,43.60
2023-05-01T17:06:56.347Z,44.26
2023-05-01T17:09:23.499Z,44.14
2023-05-01T17:11:56.963Z,44.51
2023-05-01T17:14:24.317Z,44.87
